Time;durP1;ratioP1;P1;durP2;ratioP2;P2;SDS_P1;SDS_P2;PMS_P1;PMS_P2;Temp;Humidity;BMP_temperature;BMP_pressure;BME280_temperature;BME280_humidity;BME280_pressure;Samples;Min_cycle;Max_cycle;Signal;HPM_P1;HPM_P2
2022/06/28 00:01:41;;;;;;;;;;;12.70;99.90;;;;;;5047337;28;19974;-72
2022/06/28 00:04:07;;;;;;;;;;;12.40;99.90;;;;;;5045493;28;20452;-72
2022/06/28 00:06:33;;;;;;;;;;;12.30;99.90;;;;;;5047566;28;19920;-72
2022/06/28 00:08:58;;;;;;;;;;;13.60;99.90;;;;;;5045155;28;19921;-72
2022/06/28 00:11:24;;;;;;;;;;;12.20;99.90;;;;;;5047930;28;19968;-72
2022/06/28 00:13:50;;;;;;;;;;;12.40;99.90;;;;;;5040434;28;19974;-72
2022/06/28 00:16:16;;;;;;;;;;;12.50;99.90;;;;;;5047614;28;19927;-72
2022/06/28 00:18:42;;;;;;;;;;;12.40;99.90;;;;;;5058176;28;19921;-73
2022/06/28 00:21:11;;;;;;;;;;;12.00;99.90;;;;;;5044548;28;19924;-72
2022/06/28 00:23:37;;;;;;;;;;;13.50;99.90;;;;;;5054569;28;20003;-72
2022/06/28 00:26:04;;;;;;;;;;;13.70;99.90;;;;;;5043700;28;19927;-72
2022/06/28 00:28:29;;;;;;;;;;;12.40;99.90;;;;;;5054601;28;19931;-73
2022/06/28 00:30:55;;;;;;;;;;;12.40;99.90;;;;;;5043758;28;19921;-73
2022/06/28 00:33:20;;;;;;;;;;;13.00;99.90;;;;;;5041158;28;19920;-72
2022/06/28 00:35:46;;;;;;;;;;;12.50;99.90;;;;;;5045228;28;19927;-72
2022/06/28 00:38:12;;;;;;;;;;;12.70;99.90;;;;;;5053352;28;19924;-73
2022/06/28 00:40:51;;;;;;;;;;;12.70;99.90;;;;;;5045178;28;20070;-73
2022/06/28 00:43:16;;;;;;;;;;;12.50;99.90;;;;;;5040873;28;20274;-73
2022/06/28 00:45:43;;;;;;;;;;;12.50;99.90;;;;;;5053644;28;19928;-73
2022/06/28 00:48:09;;;;;;;;;;;12.40;99.90;;;;;;5052771;28;20027;-73
2022/06/28 00:50:35;;;;;;;;;;;12.40;99.90;;;;;;5046578;28;19920;-73
2022/06/28 00:53:02;;;;;;;;;;;12.70;99.90;;;;;;5052838;28;19921;-74
2022/06/28 00:55:27;;;;;;;;;;;12.40;99.90;;;;;;5044466;28;19923;-73
2022/06/28 00:57:53;;;;;;;;;;;12.40;99.90;;;;;;5053342;28;20011;-73
2022/06/28 01:00:18;;;;;;;;;;;13.40;99.90;;;;;;5043568;28;19927;-73
2022/06/28 01:02:44;;;;;;;;;;;12.30;99.90;;;;;;5040465;28;19921;-73
2022/06/28 01:05:09;;;;;;;;;;;12.30;99.90;;;;;;5043654;28;20039;-73
2022/06/28 01:07:35;;;;;;;;;;;12.30;99.90;;;;;;5052889;28;19920;-73
2022/06/28 01:10:01;;;;;;;;;;;13.50;99.90;;;;;;5043430;28;20284;-73
2022/06/28 01:12:26;;;;;;;;;;;12.20;99.90;;;;;;5053714;28;20020;-73
2022/06/28 01:14:52;;;;;;;;;;;13.30;99.90;;;;;;5052287;28;20379;-73
2022/06/28 01:17:17;;;;;;;;;;;12.30;99.90;;;;;;5053132;28;19925;-72
2022/06/28 01:19:43;;;;;;;;;;;12.10;99.90;;;;;;5043208;28;19974;-73
2022/06/28 01:22:10;;;;;;;;;;;12.10;99.90;;;;;;5052362;28;19920;-73
2022/06/28 01:24:35;;;;;;;;;;;12.10;99.90;;;;;;5043994;28;19921;-74
2022/06/28 01:27:01;;;;;;;;;;;13.20;99.90;;;;;;5052940;28;19927;-73
2022/06/28 01:29:27;;;;;;;;;;;12.10;99.90;;;;;;5053121;28;19927;-73
2022/06/28 01:31:53;;;;;;;;;;;12.10;99.90;;;;;;5042750;28;20368;-73
2022/06/28 01:34:22;;;;;;;;;;;13.40;99.90;;;;;;5050920;28;20360;-73
2022/06/28 01:36:48;;;;;;;;;;;12.20;99.90;;;;;;5043725;28;20283;-72
2022/06/28 01:39:13;;;;;;;;;;;12.20;99.90;;;;;;5053148;28;19920;-73
2022/06/28 01:41:39;;;;;;;;;;;12.20;99.90;;;;;;5052603;28;20451;-72
2022/06/28 01:44:06;;;;;;;;;;;12.10;99.90;;;;;;5052140;28;20003;-72
2022/06/28 01:46:36;;;;;;;;;;;12.10;99.90;;;;;;5053057;28;20018;-73
2022/06/28 01:49:02;;;;;;;;;;;12.10;99.90;;;;;;5051770;28;19924;-73
2022/06/28 01:51:28;;;;;;;;;;;12.10;99.90;;;;;;5043789;28;19921;-73
2022/06/28 01:53:53;;;;;;;;;;;12.10;99.90;;;;;;5052530;28;20343;-73
2022/06/28 01:56:19;;;;;;;;;;;12.10;99.90;;;;;;5042847;28;19968;-73
2022/06/28 01:58:45;;;;;;;;;;;13.10;99.90;;;;;;5052854;28;20007;-74
2022/06/28 02:01:10;;;;;;;;;;;12.20;99.90;;;;;;5051791;28;20027;-74
2022/06/28 02:03:36;;;;;;;;;;;12.10;99.90;;;;;;5051854;28;19927;-74
2022/06/28 02:06:01;;;;;;;;;;;12.00;99.90;;;;;;5052441;28;19917;-74
2022/06/28 02:08:27;;;;;;;;;;;12.00;99.90;;;;;;5043144;28;19931;-73
2022/06/28 02:10:56;;;;;;;;;;;12.20;99.90;;;;;;5041508;28;19927;-73
2022/06/28 02:13:22;;;;;;;;;;;12.10;99.90;;;;;;5043205;28;19927;-73
2022/06/28 02:15:47;;;;;;;;;;;12.20;99.90;;;;;;5052248;28;19925;-73
2022/06/28 02:18:13;;;;;;;;;;;13.10;99.90;;;;;;5040838;28;19927;-73
2022/06/28 02:20:38;;;;;;;;;;;12.00;99.90;;;;;;5042515;28;20387;-73
2022/06/28 02:23:04;;;;;;;;;;;12.10;99.90;;;;;;5042949;28;19946;-73
2022/06/28 02:25:29;;;;;;;;;;;12.10;99.90;;;;;;5051616;28;20368;-73
2022/06/28 02:27:55;;;;;;;;;;;12.40;99.90;;;;;;5051292;28;20011;-73
2022/06/28 02:30:21;;;;;;;;;;;12.80;99.90;;;;;;5052024;28;19925;-73
2022/06/28 02:32:47;;;;;;;;;;;12.10;99.90;;;;;;5042254;28;19978;-72
2022/06/28 02:40:41;;;;;;;;;;;12.20;99.90;;;;;;5050078;28;19921;-73
2022/06/28 02:43:06;;;;;;;;;;;12.70;99.90;;;;;;5051076;28;20425;-73
2022/06/28 02:45:32;;;;;;;;;;;13.20;99.90;;;;;;5041211;28;19925;-73
2022/06/28 02:47:58;;;;;;;;;;;12.10;99.90;;;;;;5051870;28;20172;-72
2022/06/28 02:50:23;;;;;;;;;;;12.10;99.90;;;;;;5051937;28;19967;-73
2022/06/28 02:52:49;;;;;;;;;;;12.00;99.90;;;;;;5050937;28;19980;-73
2022/06/28 02:55:15;;;;;;;;;;;12.30;99.90;;;;;;5051343;28;20364;-73
2022/06/28 02:57:40;;;;;;;;;;;12.10;99.90;;;;;;5042102;28;19921;-73
2022/06/28 03:00:07;;;;;;;;;;;12.30;99.90;;;;;;5050858;28;19924;-74
2022/06/28 03:02:37;;;;;;;;;;;12.00;99.90;;;;;;5051341;28;20324;-73
2022/06/28 03:05:03;;;;;;;;;;;11.90;99.90;;;;;;5037287;28;20288;-72
2022/06/28 03:07:29;;;;;;;;;;;11.80;99.90;;;;;;5040875;28;19925;-73
2022/06/28 03:09:54;;;;;;;;;;;13.10;99.90;;;;;;5041666;28;19921;-73
2022/06/28 03:12:20;;;;;;;;;;;13.00;99.90;;;;;;5042079;28;19981;-72
2022/06/28 03:14:45;;;;;;;;;;;12.00;99.90;;;;;;5050153;28;19932;-73
2022/06/28 03:17:10;;;;;;;;;;;12.90;99.90;;;;;;5051714;28;19978;-73
2022/06/28 03:19:36;;;;;;;;;;;12.90;99.90;;;;;;5057491;28;19942;-73
2022/06/28 03:22:02;;;;;;;;;;;11.70;99.90;;;;;;5044392;28;19920;-72
2022/06/28 03:24:27;;;;;;;;;;;11.70;99.90;;;;;;5060341;28;20302;-73
2022/06/28 03:26:53;;;;;;;;;;;12.90;99.90;;;;;;5044525;28;19943;-73
2022/06/28 03:29:18;;;;;;;;;;;13.00;99.90;;;;;;5066215;28;20007;-73
2022/06/28 03:31:44;;;;;;;;;;;11.70;99.90;;;;;;5063470;28;19917;-73
2022/06/28 03:34:09;;;;;;;;;;;11.70;99.90;;;;;;5047405;28;19924;-73
2022/06/28 03:36:34;;;;;;;;;;;11.80;99.90;;;;;;5065078;28;20368;-73
2022/06/28 03:39:00;;;;;;;;;;;12.40;99.90;;;;;;5046754;28;19928;-73
2022/06/28 03:41:25;;;;;;;;;;;12.70;99.90;;;;;;5065463;28;19916;-74
2022/06/28 03:43:52;;;;;;;;;;;11.80;99.90;;;;;;5063546;28;19924;-74
2022/06/28 03:46:19;;;;;;;;;;;11.90;99.90;;;;;;5044124;28;20291;-74
2022/06/28 03:48:45;;;;;;;;;;;11.90;99.90;;;;;;5042567;28;20070;-74
2022/06/28 03:51:11;;;;;;;;;;;12.00;99.90;;;;;;5066102;28;20434;-73
2022/06/28 03:53:37;;;;;;;;;;;12.00;99.90;;;;;;5064019;28;20004;-72
2022/06/28 03:56:03;;;;;;;;;;;13.10;99.90;;;;;;5046642;28;20353;-73
2022/06/28 03:58:28;;;;;;;;;;;12.20;99.90;;;;;;5064814;28;19924;-73
2022/06/28 04:00:54;;;;;;;;;;;12.20;99.90;;;;;;5064016;28;19924;-72
2022/06/28 04:03:19;;;;;;;;;;;12.30;99.90;;;;;;5042947;28;19921;-72
2022/06/28 04:05:45;;;;;;;;;;;12.20;99.90;;;;;;5048321;28;19921;-73
2022/06/28 04:08:10;;;;;;;;;;;12.30;99.90;;;;;;5044812;28;19921;-72
2022/06/28 04:10:36;;;;;;;;;;;12.40;99.90;;;;;;5047224;28;20023;-72
2022/06/28 04:13:01;;;;;;;;;;;12.40;99.90;;;;;;5064061;28;19931;-72
2022/06/28 04:15:27;;;;;;;;;;;12.40;99.90;;;;;;5064969;28;19983;-73
2022/06/28 04:17:52;;;;;;;;;;;13.20;99.90;;;;;;5046090;28;19960;-73
2022/06/28 04:20:18;;;;;;;;;;;12.60;99.90;;;;;;5053564;28;20011;-73
2022/06/28 04:22:44;;;;;;;;;;;12.20;99.90;;;;;;5054529;28;20351;-73
2022/06/28 04:25:09;;;;;;;;;;;13.20;99.90;;;;;;5053582;28;20304;-73
2022/06/28 04:27:35;;;;;;;;;;;12.80;99.90;;;;;;5054033;28;19929;-73
2022/06/28 04:30:03;;;;;;;;;;;12.70;99.90;;;;;;5052986;28;19968;-73
2022/06/28 04:32:29;;;;;;;;;;;12.80;99.90;;;;;;5054323;28;19931;-73
2022/06/28 04:34:55;;;;;;;;;;;12.90;99.90;;;;;;5053871;28;20392;-73
2022/06/28 04:37:20;;;;;;;;;;;13.80;99.90;;;;;;5043683;28;19927;-73
2022/06/28 04:39:46;;;;;;;;;;;12.90;99.90;;;;;;5053182;28;20022;-74
2022/06/28 04:42:11;;;;;;;;;;;13.00;99.90;;;;;;5053985;28;19932;-73
2022/06/28 04:44:38;;;;;;;;;;;13.00;99.90;;;;;;5044215;28;19920;-72
2022/06/28 04:47:04;;;;;;;;;;;13.10;99.90;;;;;;5053831;28;19956;-73
2022/06/28 04:49:29;;;;;;;;;;;13.20;99.90;;;;;;5044198;28;19978;-72
2022/06/28 04:51:55;;;;;;;;;;;13.10;99.90;;;;;;5043759;28;19921;-73
2022/06/28 04:54:21;;;;;;;;;;;13.20;99.90;;;;;;5053060;28;19924;-73
2022/06/28 04:56:47;;;;;;;;;;;13.30;99.90;;;;;;5043777;28;19924;-73
2022/06/28 04:59:13;;;;;;;;;;;13.40;99.90;;;;;;5042714;28;19973;-73
2022/06/28 05:01:38;;;;;;;;;;;13.40;99.90;;;;;;5044255;28;19929;-72
2022/06/28 05:04:04;;;;;;;;;;;13.50;99.90;;;;;;5053421;28;19920;-73
2022/06/28 05:06:30;;;;;;;;;;;13.60;99.90;;;;;;5052985;28;19917;-73
2022/06/28 05:08:56;;;;;;;;;;;13.90;99.90;;;;;;5053184;28;19920;-73
2022/06/28 05:11:22;;;;;;;;;;;13.70;99.90;;;;;;5052895;28;19920;-73
2022/06/28 05:13:47;;;;;;;;;;;14.00;99.90;;;;;;5043845;28;19923;-74
2022/06/28 05:16:13;;;;;;;;;;;14.00;99.90;;;;;;5039222;28;19968;-73
2022/06/28 05:18:38;;;;;;;;;;;13.90;99.90;;;;;;5042899;28;19929;-74
2022/06/28 05:21:04;;;;;;;;;;;14.10;99.90;;;;;;5039499;28;19946;-71
2022/06/28 05:23:29;;;;;;;;;;;13.90;99.90;;;;;;5053678;28;19960;-71
2022/06/28 05:25:55;;;;;;;;;;;13.90;99.90;;;;;;5045822;28;19928;-71
2022/06/28 05:28:23;;;;;;;;;;;14.20;99.90;;;;;;5052534;28;19921;-72
2022/06/28 05:30:49;;;;;;;;;;;14.00;99.90;;;;;;5043273;28;19924;-72
2022/06/28 05:33:14;;;;;;;;;;;15.60;99.90;;;;;;5051954;28;19917;-74
2022/06/28 05:35:40;;;;;;;;;;;14.30;99.90;;;;;;5043650;28;20023;-71
2022/06/28 05:38:06;;;;;;;;;;;14.30;99.90;;;;;;5043992;28;19921;-74
2022/06/28 05:40:31;;;;;;;;;;;14.40;99.90;;;;;;5052067;28;19978;-76
2022/06/28 05:42:57;;;;;;;;;;;14.50;99.90;;;;;;5052931;28;20413;-78
2022/06/28 05:45:22;;;;;;;;;;;14.80;99.90;;;;;;5052582;28;19921;-76
2022/06/28 05:47:48;;;;;;;;;;;14.80;99.90;;;;;;5039192;28;20315;-77
2022/06/28 05:50:13;;;;;;;;;;;14.90;99.90;;;;;;5052022;28;19920;-75
2022/06/28 05:52:39;;;;;;;;;;;15.00;99.90;;;;;;5051804;28;20008;-75
2022/06/28 05:55:04;;;;;;;;;;;15.10;99.90;;;;;;5041747;28;19925;-75
2022/06/28 05:57:30;;;;;;;;;;;15.10;99.90;;;;;;5043670;28;20007;-74
2022/06/28 05:59:56;;;;;;;;;;;15.10;99.90;;;;;;5052330;28;19917;-74
2022/06/28 06:02:21;;;;;;;;;;;15.20;99.90;;;;;;5051213;28;19925;-73
2022/06/28 06:04:48;;;;;;;;;;;15.20;99.90;;;;;;5052723;28;19993;-74
2022/06/28 06:07:13;;;;;;;;;;;15.30;99.90;;;;;;5051432;28;20288;-74
2022/06/28 06:09:42;;;;;;;;;;;15.50;99.90;;;;;;5051585;28;19920;-74
2022/06/28 06:12:08;;;;;;;;;;;15.50;99.90;;;;;;5051856;28;19943;-73
2022/06/28 06:14:33;;;;;;;;;;;15.70;99.90;;;;;;5043202;28;20291;-73
2022/06/28 06:16:59;;;;;;;;;;;15.80;99.90;;;;;;5051028;28;19921;-73
2022/06/28 06:19:24;;;;;;;;;;;15.80;99.90;;;;;;5060064;28;19982;-74
2022/06/28 06:21:50;;;;;;;;;;;16.00;99.90;;;;;;5041955;28;19921;-73
2022/06/28 06:24:16;;;;;;;;;;;16.00;99.90;;;;;;5062649;28;19926;-74
2022/06/28 06:26:42;;;;;;;;;;;16.10;99.90;;;;;;5038491;28;19921;-73
2022/06/28 06:29:07;;;;;;;;;;;16.00;99.90;;;;;;5061501;28;19920;-74
2022/06/28 06:31:33;;;;;;;;;;;16.20;99.90;;;;;;5058461;28;19967;-74
2022/06/28 06:33:58;;;;;;;;;;;16.10;99.90;;;;;;5044361;28;20334;-74
2022/06/28 06:36:25;;;;;;;;;;;16.20;99.90;;;;;;5042956;28;19928;-73
2022/06/28 06:38:50;;;;;;;;;;;16.30;99.90;;;;;;5061553;28;20003;-74
2022/06/28 06:41:16;;;;;;;;;;;16.40;99.90;;;;;;5056173;28;20452;-75
2022/06/28 06:43:42;;;;;;;;;;;16.70;99.90;;;;;;5044761;28;19920;-73
2022/06/28 06:46:07;;;;;;;;;;;16.80;99.90;;;;;;5057217;28;19966;-74
2022/06/28 06:48:33;;;;;;;;;;;16.50;99.90;;;;;;5041991;28;20324;-74
2022/06/28 06:50:58;;;;;;;;;;;16.60;99.90;;;;;;5060222;28;20404;-76
2022/06/28 06:53:24;;;;;;;;;;;17.00;99.90;;;;;;5043775;28;19982;-75
2022/06/28 06:55:49;;;;;;;;;;;16.70;99.90;;;;;;5039992;28;20015;-76
2022/06/28 06:58:18;;;;;;;;;;;17.00;99.90;;;;;;5044704;28;19928;-73
2022/06/28 07:00:43;;;;;;;;;;;16.80;99.90;;;;;;5059396;28;19920;-75
2022/06/28 07:03:09;;;;;;;;;;;16.80;99.90;;;;;;5060242;28;20485;-73
2022/06/28 07:05:34;;;;;;;;;;;16.90;99.90;;;;;;5041611;28;19920;-73
2022/06/28 07:08:00;;;;;;;;;;;17.00;99.90;;;;;;5065662;28;20433;-71
2022/06/28 07:10:25;;;;;;;;;;;17.00;99.90;;;;;;5045199;28;20284;-72
2022/06/28 07:12:51;;;;;;;;;;;17.10;99.90;;;;;;5063892;28;19920;-73
2022/06/28 07:15:16;;;;;;;;;;;17.10;99.90;;;;;;5067538;28;19967;-75
2022/06/28 07:17:42;;;;;;;;;;;17.40;99.90;;;;;;5046052;28;19966;-72
2022/06/28 07:20:08;;;;;;;;;;;17.40;99.90;;;;;;5065105;28;19921;-73
2022/06/28 07:22:33;;;;;;;;;;;17.70;99.90;;;;;;5046028;28;19921;-71
2022/06/28 07:24:59;;;;;;;;;;;18.50;99.90;;;;;;5047174;28;19924;-76
2022/06/28 07:27:25;;;;;;;;;;;19.30;99.90;;;;;;5064598;28;20024;-71
2022/06/28 07:29:51;;;;;;;;;;;20.00;99.90;;;;;;5045440;28;20019;-72
2022/06/28 07:32:16;;;;;;;;;;;20.70;99.90;;;;;;5045076;28;20372;-73
2022/06/28 07:34:42;;;;;;;;;;;21.20;99.90;;;;;;5048173;28;19923;-71
2022/06/28 07:37:07;;;;;;;;;;;21.40;99.90;;;;;;5044841;28;19974;-71
2022/06/28 07:39:33;;;;;;;;;;;21.60;99.90;;;;;;5062282;28;19955;-72
2022/06/28 07:41:59;;;;;;;;;;;21.60;99.90;;;;;;5063665;28;19931;-75
2022/06/28 07:44:24;;;;;;;;;;;22.00;99.90;;;;;;5046661;28;19920;-75
2022/06/28 07:46:50;;;;;;;;;;;22.50;99.90;;;;;;5059100;28;20326;-73
2022/06/28 07:49:15;;;;;;;;;;;22.80;99.60;;;;;;5062298;28;20321;-74
2022/06/28 07:54:25;;;;;;;;;;;23.30;99.10;;;;;;5047358;28;19920;-73
2022/06/28 07:56:51;;;;;;;;;;;24.20;99.90;;;;;;5061569;28;20285;-73
2022/06/28 07:59:16;;;;;;;;;;;24.50;97.90;;;;;;5058458;28;19924;-74
2022/06/28 08:01:42;;;;;;;;;;;24.70;96.10;;;;;;5062463;28;19920;-74
2022/06/28 08:04:08;;;;;;;;;;;24.70;96.20;;;;;;5044999;28;20030;-73
2022/06/28 08:06:33;;;;;;;;;;;24.90;96.50;;;;;;5066441;28;19916;-75
2022/06/28 08:08:59;;;;;;;;;;;25.00;95.00;;;;;;5061165;28;19920;-74
2022/06/28 08:11:25;;;;;;;;;;;25.30;95.00;;;;;;5063557;28;19946;-75
2022/06/28 08:13:52;;;;;;;;;;;25.30;95.20;;;;;;5064822;28;20287;-74
2022/06/28 08:16:18;;;;;;;;;;;24.90;93.30;;;;;;5042104;28;19920;-74
2022/06/28 08:18:44;;;;;;;;;;;24.70;93.40;;;;;;5037221;28;19928;-72
2022/06/28 08:21:10;;;;;;;;;;;25.00;93.00;;;;;;5033437;28;19978;-73
2022/06/28 08:23:35;;;;;;;;;;;25.50;93.60;;;;;;5032634;28;19921;-73
2022/06/28 08:26:03;;;;;;;;;;;25.70;92.40;;;;;;5031486;28;19916;-74
2022/06/28 08:28:29;;;;;;;;;;;26.30;92.60;;;;;;5034574;28;20361;-74
2022/06/28 08:30:54;;;;;;;;;;;26.00;92.40;;;;;;5028774;28;20428;-72
2022/06/28 08:33:20;;;;;;;;;;;25.80;92.40;;;;;;5031586;28;19921;-75
2022/06/28 08:35:45;;;;;;;;;;;25.60;92.00;;;;;;5034224;28;20015;-73
2022/06/28 08:38:11;;;;;;;;;;;26.00;91.50;;;;;;5031759;28;19964;-74
2022/06/28 08:40:37;;;;;;;;;;;26.30;90.90;;;;;;5032554;28;20019;-85
2022/06/28 08:43:04;;;;;;;;;;;26.20;91.00;;;;;;5032893;28;19928;-73
2022/06/28 08:45:30;;;;;;;;;;;25.90;91.40;;;;;;5033579;28;20407;-74
2022/06/28 08:47:56;;;;;;;;;;;26.10;91.90;;;;;;5033431;28;19976;-78
2022/06/28 08:50:37;;;;;;;;;;;25.90;92.70;;;;;;5033401;28;20369;-78
2022/06/28 08:53:03;;;;;;;;;;;25.90;91.60;;;;;;5032563;28;20348;-80
2022/06/28 08:55:30;;;;;;;;;;;25.80;92.70;;;;;;5029259;28;20010;-79
2022/06/28 08:57:56;;;;;;;;;;;25.80;91.60;;;;;;5034635;28;19917;-78
2022/06/28 09:00:22;;;;;;;;;;;26.10;91.40;;;;;;5031426;28;20269;-79
2022/06/28 09:02:47;;;;;;;;;;;26.10;91.50;;;;;;5033090;28;19936;-79
2022/06/28 09:05:13;;;;;;;;;;;26.50;90.90;;;;;;5033309;28;19917;-79
2022/06/28 09:07:39;;;;;;;;;;;26.60;90.80;;;;;;5033335;28;20388;-79
2022/06/28 09:10:04;;;;;;;;;;;26.50;90.30;;;;;;5032110;28;19925;-80
2022/06/28 09:12:31;;;;;;;;;;;26.60;90.00;;;;;;5033287;28;19921;-79
2022/06/28 09:14:57;;;;;;;;;;;26.50;90.40;;;;;;5033106;28;20007;-78
2022/06/28 09:17:27;;;;;;;;;;;26.50;90.20;;;;;;5032670;28;20376;-80
2022/06/28 09:19:55;;;;;;;;;;;26.50;90.00;;;;;;5029319;28;19924;-80
2022/06/28 09:22:37;;;;;;;;;;;26.70;89.40;;;;;;5016699;28;19924;-80
2022/06/28 09:25:06;;;;;;;;;;;26.80;87.90;;;;;;5023630;28;20404;-81
2022/06/28 09:27:33;;;;;;;;;;;26.90;84.60;;;;;;5021183;28;19921;-81
2022/06/28 09:29:59;;;;;;;;;;;26.80;87.30;;;;;;5032058;28;19920;-81
2022/06/28 09:32:26;;;;;;;;;;;27.10;87.50;;;;;;5033776;28;19921;-83
2022/06/28 09:34:53;;;;;;;;;;;27.10;86.20;;;;;;5035925;28;20004;-81
2022/06/28 09:37:38;;;;;;;;;;;27.20;84.90;;;;;;5031205;28;19921;-82
2022/06/28 09:40:10;;;;;;;;;;;27.20;83.30;;;;;;5032080;28;19991;-81
2022/06/28 09:42:36;;;;;;;;;;;27.20;84.70;;;;;;5021437;28;19921;-81
2022/06/28 09:45:02;;;;;;;;;;;27.20;86.00;;;;;;5020582;28;20304;-80
2022/06/28 09:47:28;;;;;;;;;;;27.30;86.60;;;;;;5031663;28;20288;-81
2022/06/28 09:49:53;;;;;;;;;;;27.30;86.10;;;;;;5023995;28;19925;-74
2022/06/28 09:52:22;;;;;;;;;;;26.90;87.70;;;;;;5030905;28;20011;-76
2022/06/28 09:54:51;;;;;;;;;;;26.90;88.80;;;;;;5030407;28;19928;-76
2022/06/28 09:57:18;;;;;;;;;;;27.20;89.70;;;;;;5030032;28;19927;-75
2022/06/28 09:59:43;;;;;;;;;;;27.30;87.70;;;;;;5016546;28;19921;-76
2022/06/28 10:02:13;;;;;;;;;;;27.60;86.10;;;;;;5031026;28;19925;-80
2022/06/28 10:04:39;;;;;;;;;;;27.50;86.00;;;;;;5030213;28;19992;-84
2022/06/28 10:07:04;;;;;;;;;;;27.30;84.20;;;;;;5012985;28;20435;-74
2022/06/28 10:09:31;;;;;;;;;;;27.10;87.10;;;;;;5030804;28;19921;-76
2022/06/28 10:17:33;;;;;;;;;;;27.00;89.00;;;;;;5026779;28;19925;-76
2022/06/28 10:20:00;;;;;;;;;;;26.80;86.30;;;;;;5033248;28;19932;-72
2022/06/28 10:22:25;;;;;;;;;;;27.00;88.50;;;;;;5048573;28;19932;-71
2022/06/28 10:24:55;;;;;;;;;;;27.30;88.00;;;;;;5049767;28;19921;-77
2022/06/28 10:27:21;;;;;;;;;;;27.10;86.60;;;;;;5032034;28;20340;-82
2022/06/28 10:30:08;;;;;;;;;;;27.40;85.50;;;;;;5043507;28;20007;-78
2022/06/28 10:32:50;;;;;;;;;;;27.40;87.20;;;;;;5032098;28;19967;-77
2022/06/28 10:35:36;;;;;;;;;;;27.50;87.40;;;;;;5038762;28;19967;-75
2022/06/28 10:38:08;;;;;;;;;;;27.50;88.20;;;;;;5029445;28;19983;-78
2022/06/28 10:40:50;;;;;;;;;;;27.40;86.00;;;;;;5049654;28;19980;-79
2022/06/28 10:43:28;;;;;;;;;;;27.50;86.80;;;;;;5049325;28;19928;-73
2022/06/28 10:45:59;;;;;;;;;;;27.60;85.30;;;;;;5047394;28;19928;-73
2022/06/28 10:48:25;;;;;;;;;;;27.70;87.10;;;;;;5029966;28;19931;-77
2022/06/28 10:51:03;;;;;;;;;;;27.50;86.10;;;;;;5049223;28;19999;-77
2022/06/28 10:53:33;;;;;;;;;;;27.60;87.20;;;;;;5030525;28;19936;-83
2022/06/28 10:56:14;;;;;;;;;;;27.80;86.90;;;;;;5032207;28;19959;-78
2022/06/28 10:58:59;;;;;;;;;;;28.10;88.10;;;;;;5033188;28;19931;-76
2022/06/28 11:01:40;;;;;;;;;;;27.40;85.60;;;;;;5047490;28;19924;-76
2022/06/28 11:04:18;;;;;;;;;;;26.60;87.30;;;;;;5045966;28;19986;-77
2022/06/28 11:06:47;;;;;;;;;;;26.70;89.10;;;;;;5030979;28;20351;-74
2022/06/28 11:09:31;;;;;;;;;;;26.40;88.30;;;;;;5023854;28;19928;-75
2022/06/28 11:12:15;;;;;;;;;;;25.90;88.30;;;;;;5046876;28;19928;-72
2022/06/28 11:14:43;;;;;;;;;;;25.60;90.90;;;;;;5047663;28;19934;-77
2022/06/28 11:17:28;;;;;;;;;;;25.20;90.10;;;;;;5031711;28;19928;-80
2022/06/28 11:19:55;;;;;;;;;;;25.20;89.60;;;;;;5048384;28;19931;-81
2022/06/28 11:22:22;;;;;;;;;;;25.10;90.80;;;;;;5051114;28;19925;-78
2022/06/28 11:24:48;;;;;;;;;;;25.10;91.10;;;;;;5051251;28;19995;-76
2022/06/28 11:27:20;;;;;;;;;;;25.70;91.70;;;;;;5037884;28;19995;-79
2022/06/28 11:29:46;;;;;;;;;;;25.90;91.10;;;;;;5039355;28;19971;-77
2022/06/28 11:32:20;;;;;;;;;;;25.70;90.90;;;;;;5050121;28;20003;-74
2022/06/28 11:35:05;;;;;;;;;;;25.30;91.30;;;;;;5040077;28;20276;-79
2022/06/28 11:37:32;;;;;;;;;;;25.60;92.60;;;;;;5049236;28;20039;-78
2022/06/28 11:40:00;;;;;;;;;;;25.90;90.80;;;;;;5046637;28;19927;-73
2022/06/28 11:42:26;;;;;;;;;;;26.00;91.70;;;;;;5048702;28;19939;-77
2022/06/28 11:44:51;;;;;;;;;;;26.00;92.70;;;;;;5050477;28;19920;-81
2022/06/28 11:47:18;;;;;;;;;;;26.50;90.40;;;;;;5029536;28;19967;-82
2022/06/28 11:49:44;;;;;;;;;;;26.60;88.80;;;;;;5052814;28;20344;-84
2022/06/28 11:52:16;;;;;;;;;;;26.50;89.80;;;;;;5055213;28;20411;-81
2022/06/28 11:54:42;;;;;;;;;;;26.30;89.50;;;;;;5043241;28;20012;-75
2022/06/28 11:57:14;;;;;;;;;;;26.30;90.50;;;;;;5054164;28;19943;-81
2022/06/28 11:59:50;;;;;;;;;;;26.30;89.20;;;;;;5054766;28;20402;-76
2022/06/28 12:02:35;;;;;;;;;;;26.10;87.60;;;;;;5040277;28;19925;-78
2022/06/28 12:05:00;;;;;;;;;;;25.80;90.50;;;;;;5041691;28;19970;-77
2022/06/28 12:07:36;;;;;;;;;;;25.50;90.70;;;;;;5053570;28;19924;-76
2022/06/28 12:10:02;;;;;;;;;;;25.20;90.60;;;;;;5038604;28;19946;-78
2022/06/28 12:12:30;;;;;;;;;;;25.20;90.80;;;;;;5040119;28;19974;-81
2022/06/28 12:14:57;;;;;;;;;;;25.00;90.50;;;;;;5046776;28;20312;-81
2022/06/28 12:17:23;;;;;;;;;;;25.00;90.70;;;;;;5053591;28;19974;-80
2022/06/28 12:19:48;;;;;;;;;;;25.00;90.40;;;;;;5052924;28;19921;-81
2022/06/28 12:22:17;;;;;;;;;;;25.00;91.00;;;;;;5052246;28;19929;-80
2022/06/28 12:24:55;;;;;;;;;;;25.10;90.60;;;;;;5054004;28;20299;-80
2022/06/28 12:27:24;;;;;;;;;;;24.90;90.90;;;;;;5036827;28;19921;-80
2022/06/28 12:29:51;;;;;;;;;;;25.00;89.40;;;;;;5049610;28;19931;-80
2022/06/28 12:32:17;;;;;;;;;;;24.60;91.50;;;;;;5054746;28;20300;-80
2022/06/28 12:34:43;;;;;;;;;;;24.50;91.60;;;;;;5045414;28;19947;-80
2022/06/28 12:37:09;;;;;;;;;;;24.10;90.60;;;;;;5043598;28;20319;-80
2022/06/28 12:39:35;;;;;;;;;;;24.10;91.30;;;;;;5045303;28;19920;-81
2022/06/28 12:42:00;;;;;;;;;;;24.30;90.90;;;;;;5053706;28;20287;-80
2022/06/28 12:44:26;;;;;;;;;;;24.50;90.90;;;;;;5041298;28;19921;-80
2022/06/28 12:46:52;;;;;;;;;;;24.40;91.20;;;;;;5044426;28;20003;-80
2022/06/28 12:49:18;;;;;;;;;;;24.50;91.70;;;;;;5053374;28;19928;-81
2022/06/28 12:51:44;;;;;;;;;;;24.40;90.30;;;;;;5054105;28;19928;-81
2022/06/28 12:54:09;;;;;;;;;;;24.40;90.30;;;;;;5053688;28;20307;-81
2022/06/28 12:56:35;;;;;;;;;;;24.60;90.90;;;;;;5044063;28;19921;-81
2022/06/28 12:59:00;;;;;;;;;;;24.50;89.80;;;;;;5054561;28;20007;-81
2022/06/28 13:01:26;;;;;;;;;;;24.40;89.70;;;;;;5043843;28;20382;-81
2022/06/28 13:03:52;;;;;;;;;;;24.30;90.80;;;;;;5052745;28;19920;-81
2022/06/28 13:06:18;;;;;;;;;;;24.40;91.40;;;;;;5053810;28;20007;-81
2022/06/28 13:08:43;;;;;;;;;;;24.40;91.30;;;;;;5053778;28;19920;-81
2022/06/28 13:11:09;;;;;;;;;;;24.50;90.30;;;;;;5042672;28;20309;-81
2022/06/28 13:13:35;;;;;;;;;;;24.30;90.60;;;;;;5039904;28;19963;-81
2022/06/28 13:16:00;;;;;;;;;;;23.90;90.50;;;;;;5052832;28;20349;-81
2022/06/28 13:18:26;;;;;;;;;;;24.00;90.90;;;;;;5044898;28;19924;-81
2022/06/28 13:20:52;;;;;;;;;;;24.00;91.70;;;;;;5062046;28;20007;-78
2022/06/28 13:23:18;;;;;;;;;;;24.30;90.00;;;;;;5044393;28;19920;-81
2022/06/28 13:25:44;;;;;;;;;;;24.40;90.30;;;;;;5060930;28;19927;-81
2022/06/28 13:28:09;;;;;;;;;;;24.40;91.50;;;;;;5064811;28;19930;-81
2022/06/28 13:30:38;;;;;;;;;;;24.50;90.90;;;;;;5044114;28;19928;-81
2022/06/28 13:33:03;;;;;;;;;;;24.40;90.40;;;;;;5063373;28;19920;-81
2022/06/28 13:35:29;;;;;;;;;;;24.40;92.00;;;;;;5060488;28;20287;-81
2022/06/28 13:37:55;;;;;;;;;;;24.50;91.10;;;;;;5045016;28;20292;-80
2022/06/28 13:40:20;;;;;;;;;;;24.50;90.70;;;;;;5043944;28;19923;-81
2022/06/28 13:42:46;;;;;;;;;;;24.50;90.40;;;;;;5046122;28;19921;-81
2022/06/28 13:45:13;;;;;;;;;;;24.70;90.50;;;;;;5043502;28;20026;-81
2022/06/28 13:47:39;;;;;;;;;;;24.70;90.40;;;;;;5045973;28;20674;-81
2022/06/28 13:50:05;;;;;;;;;;;24.80;89.70;;;;;;5060725;28;20008;-81
2022/06/28 13:52:30;;;;;;;;;;;24.60;90.70;;;;;;5064457;28;19961;-81
2022/06/28 13:54:56;;;;;;;;;;;24.60;90.40;;;;;;5043285;28;19920;-81
2022/06/28 13:57:25;;;;;;;;;;;24.70;90.30;;;;;;5063371;28;19920;-81
2022/06/28 13:59:51;;;;;;;;;;;24.70;89.60;;;;;;5061424;28;19923;-81
2022/06/28 14:02:17;;;;;;;;;;;24.80;90.40;;;;;;5062336;28;19928;-81
2022/06/28 14:04:42;;;;;;;;;;;24.80;90.90;;;;;;5045730;28;19924;-81
2022/06/28 14:07:08;;;;;;;;;;;24.90;91.20;;;;;;5041872;28;20296;-81
2022/06/28 14:09:33;;;;;;;;;;;25.10;90.20;;;;;;5046514;28;19921;-81
2022/06/28 14:11:59;;;;;;;;;;;25.10;89.60;;;;;;5042646;28;20288;-82
2022/06/28 14:14:25;;;;;;;;;;;25.00;89.90;;;;;;5061975;28;20281;-81
2022/06/28 14:16:51;;;;;;;;;;;23.60;87.90;;;;;;5061520;28;19926;-81
2022/06/28 14:19:16;;;;;;;;;;;25.10;87.70;;;;;;5056157;28;20008;-81
2022/06/28 14:21:42;;;;;;;;;;;25.10;88.60;;;;;;5051402;28;19927;-81
2022/06/28 14:24:08;;;;;;;;;;;25.20;87.90;;;;;;5052679;28;19921;-81
2022/06/28 14:26:33;;;;;;;;;;;25.10;87.40;;;;;;5043444;28;19916;-81
2022/06/28 14:28:59;;;;;;;;;;;25.10;86.70;;;;;;5050983;28;20372;-81